sensor_id;sensor_type;location;lat;lon;timestamp;pressure;altitude;pressure_sealevel;temperature;humidity
13068;BME280;6600;51.362;6.686;2023-01-23T00:00:59;102960.63;;;3.58;100.00
13068;BME280;6600;51.362;6.686;2023-01-23T00:03:26;102976.31;;;3.61;100.00
13068;BME280;6600;51.362;6.686;2023-01-23T00:06:05;102965.84;;;3.70;100.00
13068;BME280;6600;51.362;6.686;2023-01-23T00:08:31;102974.13;;;3.66;100.00
13068;BME280;6600;51.362;6.686;2023-01-23T00:10:57;102982.59;;;3.71;100.00
13068;BME280;6600;51.362;6.686;2023-01-23T00:13:22;102980.19;;;3.68;100.00
13068;BME280;6600;51.362;6.686;2023-01-23T00:15:48;102982.13;;;3.77;100.00
13068;BME280;6600;51.362;6.686;2023-01-23T00:18:14;102980.34;;;3.77;100.00
13068;BME280;6600;51.362;6.686;2023-01-23T00:20:40;102979.47;;;3.77;100.00
13068;BME280;6600;51.362;6.686;2023-01-23T00:23:06;102982.84;;;3.68;100.00
13068;BME280;6600;51.362;6.686;2023-01-23T00:25:33;102978.44;;;3.55;100.00
13068;BME280;6600;51.362;6.686;2023-01-23T00:27:59;102974.13;;;3.66;100.00
13068;BME280;6600;51.362;6.686;2023-01-23T00:30:25;102968.31;;;3.49;100.00
13068;BME280;6600;51.362;6.686;2023-01-23T00:32:50;102969.31;;;3.60;100.00
13068;BME280;6600;51.362;6.686;2023-01-23T00:35:15;102971.84;;;3.61;100.00
13068;BME280;6600;51.362;6.686;2023-01-23T00:37:41;102974.38;;;3.63;100.00
13068;BME280;6600;51.362;6.686;2023-01-23T00:40:07;102971.28;;;3.69;100.00
13068;BME280;6600;51.362;6.686;2023-01-23T00:42:33;102974.66;;;3.71;100.00
13068;BME280;6600;51.362;6.686;2023-01-23T00:44:58;102974.94;;;3.79;100.00
13068;BME280;6600;51.362;6.686;2023-01-23T00:47:23;102963.47;;;3.78;100.00
13068;BME280;6600;51.362;6.686;2023-01-23T00:49:49;102962.84;;;3.75;100.00
13068;BME280;6600;51.362;6.686;2023-01-23T00:52:14;102959.25;;;3.76;100.00
13068;BME280;6600;51.362;6.686;2023-01-23T00:54:39;102959.47;;;3.73;100.00
13068;BME280;6600;51.362;6.686;2023-01-23T00:57:05;102968.84;;;3.66;100.00
13068;BME280;6600;51.362;6.686;2023-01-23T00:59:30;102968.22;;;3.62;100.00
13068;BME280;6600;51.362;6.686;2023-01-23T01:01:56;102971.50;;;3.66;100.00
13068;BME280;6600;51.362;6.686;2023-01-23T01:04:21;102973.31;;;3.65;100.00
13068;BME280;6600;51.362;6.686;2023-01-23T01:06:46;102984.31;;;3.72;100.00
13068;BME280;6600;51.362;6.686;2023-01-23T01:09:12;102985.31;;;3.82;100.00
13068;BME280;6600;51.362;6.686;2023-01-23T01:11:38;102985.88;;;3.74;100.00
13068;BME280;6600;51.362;6.686;2023-01-23T01:14:04;102988.44;;;3.76;100.00
13068;BME280;6600;51.362;6.686;2023-01-23T01:16:29;102999.22;;;3.73;100.00
13068;BME280;6600;51.362;6.686;2023-01-23T01:18:54;102995.53;;;3.75;100.00
13068;BME280;6600;51.362;6.686;2023-01-23T01:21:20;102979.00;;;3.83;100.00
13068;BME280;6600;51.362;6.686;2023-01-23T01:23:45;102989.84;;;3.80;100.00
13068;BME280;6600;51.362;6.686;2023-01-23T01:26:11;102996.38;;;3.87;100.00
13068;BME280;6600;51.362;6.686;2023-01-23T01:28:38;102997.63;;;3.94;100.00
13068;BME280;6600;51.362;6.686;2023-01-23T01:31:14;103000.78;;;3.99;100.00
13068;BME280;6600;51.362;6.686;2023-01-23T01:33:41;103012.81;;;3.92;100.00
13068;BME280;6600;51.362;6.686;2023-01-23T01:36:09;103023.19;;;3.95;100.00
13068;BME280;6600;51.362;6.686;2023-01-23T01:38:35;103018.91;;;3.81;100.00
13068;BME280;6600;51.362;6.686;2023-01-23T01:41:00;103017.13;;;3.82;100.00
13068;BME280;6600;51.362;6.686;2023-01-23T01:43:26;103022.28;;;3.72;100.00
13068;BME280;6600;51.362;6.686;2023-01-23T01:46:05;103020.25;;;3.87;100.00
13068;BME280;6600;51.362;6.686;2023-01-23T01:51:08;103028.06;;;3.77;100.00
13068;BME280;6600;51.362;6.686;2023-01-23T01:53:36;103024.31;;;3.80;100.00
13068;BME280;6600;51.362;6.686;2023-01-23T01:56:02;103008.41;;;3.80;100.00
13068;BME280;6600;51.362;6.686;2023-01-23T01:58:28;103011.31;;;3.77;100.00
13068;BME280;6600;51.362;6.686;2023-01-23T02:00:53;103012.28;;;3.76;100.00
13068;BME280;6600;51.362;6.686;2023-01-23T02:03:19;103007.41;;;3.70;100.00
13068;BME280;6600;51.362;6.686;2023-01-23T02:05:47;103007.81;;;3.76;100.00
13068;BME280;6600;51.362;6.686;2023-01-23T02:08:31;103010.59;;;3.75;100.00
13068;BME280;6600;51.362;6.686;2023-01-23T02:10:59;103014.19;;;3.74;100.00
13068;BME280;6600;51.362;6.686;2023-01-23T02:13:34;103009.72;;;3.74;100.00
13068;BME280;6600;51.362;6.686;2023-01-23T02:16:06;103019.50;;;3.74;100.00
13068;BME280;6600;51.362;6.686;2023-01-23T02:18:34;103017.78;;;3.73;100.00
13068;BME280;6600;51.362;6.686;2023-01-23T02:21:05;103027.56;;;3.72;100.00
13068;BME280;6600;51.362;6.686;2023-01-23T02:23:38;103018.88;;;3.70;100.00
13068;BME280;6600;51.362;6.686;2023-01-23T02:26:08;103024.78;;;3.74;100.00
13068;BME280;6600;51.362;6.686;2023-01-23T02:28:41;103020.97;;;3.78;100.00
13068;BME280;6600;51.362;6.686;2023-01-23T02:31:08;103009.81;;;3.62;100.00
13068;BME280;6600;51.362;6.686;2023-01-23T02:36:00;103012.84;;;3.68;100.00
13068;BME280;6600;51.362;6.686;2023-01-23T02:38:29;103010.81;;;3.72;100.00
13068;BME280;6600;51.362;6.686;2023-01-23T02:40:57;103018.16;;;3.79;100.00
13068;BME280;6600;51.362;6.686;2023-01-23T02:43:28;103008.41;;;3.80;100.00
13068;BME280;6600;51.362;6.686;2023-01-23T02:46:08;103002.06;;;3.82;100.00
13068;BME280;6600;51.362;6.686;2023-01-23T02:48:34;102994.94;;;3.83;100.00
13068;BME280;6600;51.362;6.686;2023-01-23T02:51:00;102989.91;;;3.91;100.00
13068;BME280;6600;51.362;6.686;2023-01-23T02:53:25;102990.28;;;3.97;100.00
13068;BME280;6600;51.362;6.686;2023-01-23T02:55:52;102984.13;;;3.97;100.00
13068;BME280;6600;51.362;6.686;2023-01-23T02:58:18;102988.19;;;3.90;100.00
13068;BME280;6600;51.362;6.686;2023-01-23T03:01:03;102996.19;;;4.01;100.00
13068;BME280;6600;51.362;6.686;2023-01-23T03:03:28;102987.75;;;3.96;100.00
13068;BME280;6600;51.362;6.686;2023-01-23T03:05:55;102988.19;;;3.90;100.00
13068;BME280;6600;51.362;6.686;2023-01-23T03:08:20;102979.53;;;3.88;100.00
13068;BME280;6600;51.362;6.686;2023-01-23T03:10:45;102984.44;;;3.81;100.00
13068;BME280;6600;51.362;6.686;2023-01-23T03:13:11;102986.69;;;3.64;100.00
13068;BME280;6600;51.362;6.686;2023-01-23T03:15:37;102985.16;;;3.48;100.00
13068;BME280;6600;51.362;6.686;2023-01-23T03:18:08;102988.50;;;3.39;100.00
13068;BME280;6600;51.362;6.686;2023-01-23T03:20:37;102986.81;;;3.38;100.00
13068;BME280;6600;51.362;6.686;2023-01-23T03:23:03;102982.19;;;3.29;100.00
13068;BME280;6600;51.362;6.686;2023-01-23T03:25:28;102992.78;;;3.29;100.00
13068;BME280;6600;51.362;6.686;2023-01-23T03:27:54;102996.34;;;3.17;100.00
13068;BME280;6600;51.362;6.686;2023-01-23T03:30:19;103000.28;;;3.12;100.00
13068;BME280;6600;51.362;6.686;2023-01-23T03:32:46;103007.69;;;3.19;100.00
13068;BME280;6600;51.362;6.686;2023-01-23T03:35:12;103011.44;;;3.28;100.00
13068;BME280;6600;51.362;6.686;2023-01-23T03:37:38;103010.72;;;3.26;100.00
13068;BME280;6600;51.362;6.686;2023-01-23T03:40:04;103019.28;;;3.29;100.00
13068;BME280;6600;51.362;6.686;2023-01-23T03:42:48;103022.66;;;3.31;100.00
13068;BME280;6600;51.362;6.686;2023-01-23T03:45:13;103012.13;;;3.42;100.00
13068;BME280;6600;51.362;6.686;2023-01-23T03:47:39;103017.44;;;3.42;100.00
13068;BME280;6600;51.362;6.686;2023-01-23T03:50:05;103016.75;;;3.51;100.00
13068;BME280;6600;51.362;6.686;2023-01-23T03:52:30;103021.78;;;3.43;100.00
13068;BME280;6600;51.362;6.686;2023-01-23T03:54:56;103017.72;;;3.50;100.00
13068;BME280;6600;51.362;6.686;2023-01-23T03:57:21;103019.84;;;3.45;100.00
13068;BME280;6600;51.362;6.686;2023-01-23T03:59:47;103024.97;;;3.60;100.00
13068;BME280;6600;51.362;6.686;2023-01-23T04:02:12;103021.09;;;3.52;100.00
13068;BME280;6600;51.362;6.686;2023-01-23T04:04:38;103020.06;;;3.66;100.00
13068;BME280;6600;51.362;6.686;2023-01-23T04:07:04;103030.72;;;3.77;100.00
13068;BME280;6600;51.362;6.686;2023-01-23T04:09:30;103030.09;;;3.74;100.00
13068;BME280;6600;51.362;6.686;2023-01-23T04:11:57;103030.09;;;3.74;100.00
13068;BME280;6600;51.362;6.686;2023-01-23T04:14:24;103035.41;;;3.74;100.00
13068;BME280;6600;51.362;6.686;2023-01-23T04:16:50;103031.84;;;3.62;100.00
13068;BME280;6600;51.362;6.686;2023-01-23T04:19:16;103031.66;;;3.65;100.00
13068;BME280;6600;51.362;6.686;2023-01-23T04:21:48;103035.16;;;3.77;100.00
13068;BME280;6600;51.362;6.686;2023-01-23T04:24:15;103030.94;;;3.74;100.00
13068;BME280;6600;51.362;6.686;2023-01-23T04:26:41;103039.53;;;3.78;100.00
13068;BME280;6600;51.362;6.686;2023-01-23T04:29:06;103037.63;;;3.91;100.00
13068;BME280;6600;51.362;6.686;2023-01-23T04:31:33;103040.81;;;3.96;100.00
13068;BME280;6600;51.362;6.686;2023-01-23T04:33:58;103034.75;;;3.94;100.00
13068;BME280;6600;51.362;6.686;2023-01-23T04:36:23;103031.72;;;3.87;100.00
13068;BME280;6600;51.362;6.686;2023-01-23T04:38:49;103033.50;;;3.87;100.00
13068;BME280;6600;51.362;6.686;2023-01-23T04:41:26;103032.09;;;3.94;100.00
13068;BME280;6600;51.362;6.686;2023-01-23T04:43:51;103029.56;;;3.92;100.00
13068;BME280;6600;51.362;6.686;2023-01-23T04:46:17;103026.44;;;3.98;100.00
13068;BME280;6600;51.362;6.686;2023-01-23T04:48:42;103022.34;;;3.94;100.00
13068;BME280;6600;51.362;6.686;2023-01-23T04:51:08;103024.09;;;3.83;100.00
13068;BME280;6600;51.362;6.686;2023-01-23T04:53:33;103018.97;;;3.92;100.00
13068;BME280;6600;51.362;6.686;2023-01-23T04:55:59;103015.72;;;4.00;100.00
13068;BME280;6600;51.362;6.686;2023-01-23T04:58:24;103014.50;;;3.93;100.00
13068;BME280;6600;51.362;6.686;2023-01-23T05:00:49;103014.75;;;4.01;100.00
13068;BME280;6600;51.362;6.686;2023-01-23T05:03:15;103016.41;;;3.91;100.00
13068;BME280;6600;51.362;6.686;2023-01-23T05:05:41;103012.94;;;4.01;100.00
13068;BME280;6600;51.362;6.686;2023-01-23T05:08:11;103018.53;;;3.75;100.00
13068;BME280;6600;51.362;6.686;2023-01-23T05:10:37;103025.56;;;3.87;100.00
13068;BME280;6600;51.362;6.686;2023-01-23T05:13:03;103025.19;;;3.80;100.00
13068;BME280;6600;51.362;6.686;2023-01-23T05:15:28;103017.59;;;3.76;100.00
13068;BME280;6600;51.362;6.686;2023-01-23T05:17:54;103023.09;;;3.73;100.00
13068;BME280;6600;51.362;6.686;2023-01-23T05:20:19;103027.72;;;3.82;100.00
13068;BME280;6600;51.362;6.686;2023-01-23T05:22:45;103024.06;;;3.72;100.00
13068;BME280;6600;51.362;6.686;2023-01-23T05:25:26;103028.97;;;3.89;100.00
13068;BME280;6600;51.362;6.686;2023-01-23T05:27:53;103021.19;;;3.75;100.00
13068;BME280;6600;51.362;6.686;2023-01-23T05:30:20;103028.41;;;3.73;100.00
13068;BME280;6600;51.362;6.686;2023-01-23T05:32:47;103029.63;;;3.80;100.00
13068;BME280;6600;51.362;6.686;2023-01-23T05:35:12;103031.28;;;3.70;100.00
13068;BME280;6600;51.362;6.686;2023-01-23T05:37:38;103036.59;;;3.70;100.00
13068;BME280;6600;51.362;6.686;2023-01-23T05:40:05;103043.88;;;3.79;100.00
13068;BME280;6600;51.362;6.686;2023-01-23T05:42:33;103050.00;;;3.79;100.00
13068;BME280;6600;51.362;6.686;2023-01-23T05:44:58;103051.13;;;3.88;100.00
13068;BME280;6600;51.362;6.686;2023-01-23T05:47:24;103046.53;;;3.90;100.00
13068;BME280;6600;51.362;6.686;2023-01-23T05:49:49;103055.72;;;3.86;100.00
13068;BME280;6600;51.362;6.686;2023-01-23T05:52:14;103052.59;;;3.92;100.00
13068;BME280;6600;51.362;6.686;2023-01-23T05:54:40;103046.78;;;3.87;100.00
13068;BME280;6600;51.362;6.686;2023-01-23T05:57:05;103042.47;;;3.97;100.00
13068;BME280;6600;51.362;6.686;2023-01-23T05:59:30;103056.72;;;3.96;100.00
13068;BME280;6600;51.362;6.686;2023-01-23T06:01:56;103049.47;;;3.98;100.00
13068;BME280;6600;51.362;6.686;2023-01-23T06:04:21;103058.38;;;3.97;100.00
13068;BME280;6600;51.362;6.686;2023-01-23T06:06:46;103057.16;;;3.90;100.00
13068;BME280;6600;51.362;6.686;2023-01-23T06:09:12;103056.72;;;3.96;100.00
13068;BME280;6600;51.362;6.686;2023-01-23T06:11:37;103063.44;;;4.00;100.00
13068;BME280;6600;51.362;6.686;2023-01-23T06:14:03;103071.66;;;3.97;100.00
13068;BME280;6600;51.362;6.686;2023-01-23T06:16:28;103074.06;;;4.00;100.00
13068;BME280;6600;51.362;6.686;2023-01-23T06:18:53;103072.16;;;4.02;100.00
13068;BME280;6600;51.362;6.686;2023-01-23T06:21:19;103082.53;;;4.05;100.00
13068;BME280;6600;51.362;6.686;2023-01-23T06:23:44;103084.00;;;4.09;100.00
13068;BME280;6600;51.362;6.686;2023-01-23T06:26:10;103082.53;;;4.05;100.00
13068;BME280;6600;51.362;6.686;2023-01-23T06:28:36;103082.53;;;4.05;100.00
13068;BME280;6600;51.362;6.686;2023-01-23T06:31:02;103083.47;;;3.93;100.00
13068;BME280;6600;51.362;6.686;2023-01-23T06:33:29;103076.31;;;3.82;100.00
13068;BME280;6600;51.362;6.686;2023-01-23T06:36:03;103077.75;;;3.86;100.00
13068;BME280;6600;51.362;6.686;2023-01-23T06:38:29;103074.00;;;3.78;100.00
13068;BME280;6600;51.362;6.686;2023-01-23T06:40:54;103084.22;;;3.71;100.00
13068;BME280;6600;51.362;6.686;2023-01-23T06:43:21;103085.72;;;3.63;100.00
13068;BME280;6600;51.362;6.686;2023-01-23T06:45:46;103091.88;;;3.63;100.00
13068;BME280;6600;51.362;6.686;2023-01-23T06:48:12;103099.97;;;3.62;100.00
13068;BME280;6600;51.362;6.686;2023-01-23T06:50:39;103095.31;;;3.52;100.00
13068;BME280;6600;51.362;6.686;2023-01-23T06:53:04;103100.38;;;3.55;100.00
13068;BME280;6600;51.362;6.686;2023-01-23T06:55:31;103100.59;;;3.52;100.00
13068;BME280;6600;51.362;6.686;2023-01-23T06:57:56;103106.69;;;3.66;100.00
13068;BME280;6600;51.362;6.686;2023-01-23T07:00:22;103108.09;;;3.58;100.00
13068;BME280;6600;51.362;6.686;2023-01-23T07:02:47;103114.88;;;3.63;100.00
13068;BME280;6600;51.362;6.686;2023-01-23T07:05:13;103119.63;;;3.70;100.00
13068;BME280;6600;51.362;6.686;2023-01-23T07:07:38;103122.91;;;3.74;100.00
13068;BME280;6600;51.362;6.686;2023-01-23T07:10:04;103135.75;;;3.67;100.00
13068;BME280;6600;51.362;6.686;2023-01-23T07:12:29;103127.13;;;3.76;100.00
13068;BME280;6600;51.362;6.686;2023-01-23T07:14:55;103127.25;;;3.75;100.00
13068;BME280;6600;51.362;6.686;2023-01-23T07:17:20;103120.47;;;3.71;100.00
13068;BME280;6600;51.362;6.686;2023-01-23T07:19:45;103125.09;;;3.80;100.00
13068;BME280;6600;51.362;6.686;2023-01-23T07:22:11;103132.50;;;3.87;100.00
13068;BME280;6600;51.362;6.686;2023-01-23T07:24:36;103128.28;;;3.85;100.00
13068;BME280;6600;51.362;6.686;2023-01-23T07:27:01;103126.09;;;3.90;100.00
13068;BME280;6600;51.362;6.686;2023-01-23T07:29:27;103141.81;;;3.93;100.00
13068;BME280;6600;51.362;6.686;2023-01-23T07:31:52;103140.50;;;3.98;100.00
13068;BME280;6600;51.362;6.686;2023-01-23T07:34:17;103144.00;;;3.99;100.00
13068;BME280;6600;51.362;6.686;2023-01-23T07:36:42;103149.09;;;4.02;100.00
13068;BME280;6600;51.362;6.686;2023-01-23T07:39:08;103148.13;;;4.03;100.00
13068;BME280;6600;51.362;6.686;2023-01-23T07:41:33;103147.91;;;4.06;100.00
13068;BME280;6600;51.362;6.686;2023-01-23T07:43:59;103163.66;;;3.96;100.00
13068;BME280;6600;51.362;6.686;2023-01-23T07:46:24;103160.19;;;4.07;100.00
13068;BME280;6600;51.362;6.686;2023-01-23T07:48:51;103161.44;;;4.14;100.00
13068;BME280;6600;51.362;6.686;2023-01-23T07:51:16;103163.13;;;4.15;100.00
13068;BME280;6600;51.362;6.686;2023-01-23T07:53:42;103160.25;;;4.18;100.00
13068;BME280;6600;51.362;6.686;2023-01-23T07:56:07;103160.41;;;4.28;100.00
13068;BME280;6600;51.362;6.686;2023-01-23T07:58:32;103170.53;;;4.23;100.00
13068;BME280;6600;51.362;6.686;2023-01-23T08:00:58;103163.91;;;4.28;100.00
13068;BME280;6600;51.362;6.686;2023-01-23T08:03:24;103173.56;;;4.29;100.00
13068;BME280;6600;51.362;6.686;2023-01-23T08:05:53;103161.75;;;4.33;100.00
13068;BME280;6600;51.362;6.686;2023-01-23T08:08:18;103161.75;;;4.33;100.00
13068;BME280;6600;51.362;6.686;2023-01-23T08:10:43;103154.03;;;4.30;100.00
13068;BME280;6600;51.362;6.686;2023-01-23T08:13:09;103159.59;;;4.38;100.00
13068;BME280;6600;51.362;6.686;2023-01-23T08:15:36;103154.28;;;4.38;100.00
13068;BME280;6600;51.362;6.686;2023-01-23T08:18:01;103146.13;;;4.18;100.00
13068;BME280;6600;51.362;6.686;2023-01-23T08:20:27;103165.84;;;4.26;100.00
13068;BME280;6600;51.362;6.686;2023-01-23T08:22:52;103161.28;;;4.39;100.00
13068;BME280;6600;51.362;6.686;2023-01-23T08:25:17;103169.78;;;4.44;100.00
13068;BME280;6600;51.362;6.686;2023-01-23T08:27:43;103174.53;;;4.28;100.00
13068;BME280;6600;51.362;6.686;2023-01-23T08:30:09;103184.81;;;4.33;100.00
13068;BME280;6600;51.362;6.686;2023-01-23T08:32:35;103187.38;;;4.45;100.00
13068;BME280;6600;51.362;6.686;2023-01-23T08:35:00;103173.84;;;4.37;100.00
13068;BME280;6600;51.362;6.686;2023-01-23T08:37:26;103179.16;;;4.37;100.00
13068;BME280;6600;51.362;6.686;2023-01-23T08:39:52;103176.38;;;4.39;100.00
13068;BME280;6600;51.362;6.686;2023-01-23T08:42:18;103173.47;;;4.42;100.00
13068;BME280;6600;51.362;6.686;2023-01-23T08:44:43;103178.06;;;4.40;100.00
13068;BME280;6600;51.362;6.686;2023-01-23T08:47:08;103180.16;;;4.47;100.00
13068;BME280;6600;51.362;6.686;2023-01-23T08:49:33;103182.28;;;4.42;100.00
13068;BME280;6600;51.362;6.686;2023-01-23T08:51:59;103185.69;;;4.44;100.00
13068;BME280;6600;51.362;6.686;2023-01-23T08:54:24;103185.84;;;4.54;100.00
13068;BME280;6600;51.362;6.686;2023-01-23T08:56:49;103187.66;;;4.53;100.00
13068;BME280;6600;51.362;6.686;2023-01-23T08:59:15;103191.78;;;4.57;100.00
13068;BME280;6600;51.362;6.686;2023-01-23T09:01:40;103188.03;;;4.60;100.00
13068;BME280;6600;51.362;6.686;2023-01-23T09:04:06;103194.00;;;4.75;100.00
13068;BME280;6600;51.362;6.686;2023-01-23T09:06:31;103196.88;;;4.83;100.00
13068;BME280;6600;51.362;6.686;2023-01-23T09:08:56;103202.19;;;4.83;100.00
13068;BME280;6600;51.362;6.686;2023-01-23T09:11:22;103203.66;;;4.87;100.00
13068;BME280;6600;51.362;6.686;2023-01-23T09:13:48;103197.63;;;4.85;100.00
13068;BME280;6600;51.362;6.686;2023-01-23T09:16:14;103198.34;;;4.87;100.00
13068;BME280;6600;51.362;6.686;2023-01-23T09:18:40;103200.28;;;4.85;100.00
13068;BME280;6600;51.362;6.686;2023-01-23T09:21:07;103197.91;;;4.93;100.00
13068;BME280;6600;51.362;6.686;2023-01-23T09:23:33;103197.66;;;4.96;100.00
13068;BME280;6600;51.362;6.686;2023-01-23T09:26:04;103203.81;;;4.96;100.00
13068;BME280;6600;51.362;6.686;2023-01-23T09:28:29;103207.75;;;4.80;100.00
13068;BME280;6600;51.362;6.686;2023-01-23T09:30:55;103200.53;;;4.82;100.00
13068;BME280;6600;51.362;6.686;2023-01-23T09:33:20;103213.81;;;4.82;100.00
13068;BME280;6600;51.362;6.686;2023-01-23T09:35:52;103216.09;;;4.75;100.00
13068;BME280;6600;51.362;6.686;2023-01-23T09:38:18;103227.31;;;4.79;100.00
13068;BME280;6600;51.362;6.686;2023-01-23T09:40:51;103216.81;;;4.77;100.00
13068;BME280;6600;51.362;6.686;2023-01-23T09:43:24;103224.41;;;4.71;100.00
13068;BME280;6600;51.362;6.686;2023-01-23T09:46:17;103230.69;;;4.81;100.00
13068;BME280;6600;51.362;6.686;2023-01-23T09:48:45;103233.34;;;4.81;100.00
13068;BME280;6600;51.362;6.686;2023-01-23T09:51:25;103229.50;;;4.85;100.00
13068;BME280;6600;51.362;6.686;2023-01-23T09:53:56;103232.66;;;4.90;100.00
13068;BME280;6600;51.362;6.686;2023-01-23T09:56:35;103228.28;;;4.78;100.00
13068;BME280;6600;51.362;6.686;2023-01-23T10:01:32;103234.09;;;4.94;100.00
13068;BME280;6600;51.362;6.686;2023-01-23T10:03:59;103228.09;;;5.03;100.00
13068;BME280;6600;51.362;6.686;2023-01-23T10:06:28;103219.66;;;5.09;100.00
13068;BME280;6600;51.362;6.686;2023-01-23T10:09:07;103236.28;;;5.00;99.96
13068;BME280;6600;51.362;6.686;2023-01-23T10:14:43;103234.38;;;5.02;98.97
13068;BME280;6600;51.362;6.686;2023-01-23T10:25:37;103227.88;;;5.17;98.35
13068;BME280;6600;51.362;6.686;2023-01-23T10:31:00;103227.13;;;5.04;97.87
13068;BME280;6600;51.362;6.686;2023-01-23T10:33:41;103228.09;;;5.14;97.44
13068;BME280;6600;51.362;6.686;2023-01-23T10:36:26;103225.69;;;5.11;97.73
13068;BME280;6600;51.362;6.686;2023-01-23T10:39:08;103230.56;;;5.17;97.58
13068;BME280;6600;51.362;6.686;2023-01-23T10:41:36;103227.13;;;5.04;97.50
13068;BME280;6600;51.362;6.686;2023-01-23T10:44:13;103219.16;;;5.15;98.16
13068;BME280;6600;51.362;6.686;2023-01-23T10:47:03;103228.00;;;5.27;97.49
13068;BME280;6600;51.362;6.686;2023-01-23T10:49:43;103225.69;;;5.22;98.01
13068;BME280;6600;51.362;6.686;2023-01-23T10:54:59;103219.28;;;5.25;97.58
13068;BME280;6600;51.362;6.686;2023-01-23T10:57:27;103213.97;;;5.25;97.92
13068;BME280;6600;51.362;6.686;2023-01-23T10:59:57;103218.44;;;5.24;97.67
13068;BME280;6600;51.362;6.686;2023-01-23T11:02:30;103224.97;;;5.31;98.13
13068;BME280;6600;51.362;6.686;2023-01-23T11:04:56;103221.94;;;5.25;97.88
13068;BME280;6600;51.362;6.686;2023-01-23T11:09:58;103217.25;;;5.28;96.88
13068;BME280;6600;51.362;6.686;2023-01-23T11:12:25;103217.75;;;5.33;96.57
13068;BME280;6600;51.362;6.686;2023-01-23T11:14:54;103212.19;;;5.36;96.40
13068;BME280;6600;51.362;6.686;2023-01-23T11:17:36;103215.78;;;5.35;96.91
13068;BME280;6600;51.362;6.686;2023-01-23T11:20:32;103217.84;;;5.43;96.70
13068;BME280;6600;51.362;6.686;2023-01-23T11:25:44;103217.75;;;5.33;96.40
13068;BME280;6600;51.362;6.686;2023-01-23T11:31:16;103215.09;;;5.44;96.04
13068;BME280;6600;51.362;6.686;2023-01-23T11:33:58;103207.34;;;5.52;96.06
13068;BME280;6600;51.362;6.686;2023-01-23T11:39:42;103217.50;;;5.47;95.67
13068;BME280;6600;51.362;6.686;2023-01-23T11:42:11;103215.09;;;5.44;96.16
13068;BME280;6600;51.362;6.686;2023-01-23T11:44:37;103218.97;;;5.40;96.60
13068;BME280;6600;51.362;6.686;2023-01-23T11:50:27;103227.75;;;5.52;95.51
13068;BME280;6600;51.362;6.686;2023-01-23T11:53:11;103213.84;;;5.48;96.03
13068;BME280;6600;51.362;6.686;2023-01-23T11:56:05;103210.72;;;5.54;96.09
13068;BME280;6600;51.362;6.686;2023-01-23T12:02:08;103209.75;;;5.55;95.30
13068;BME280;6600;51.362;6.686;2023-01-23T12:07:20;103217.97;;;5.52;93.23
13068;BME280;6600;51.362;6.686;2023-01-23T12:13:04;103211.69;;;5.65;93.10
13068;BME280;6600;51.362;6.686;2023-01-23T12:15:45;103219.16;;;5.71;94.38
13068;BME280;6600;51.362;6.686;2023-01-23T12:21:01;103214.81;;;5.81;93.49
13068;BME280;6600;51.362;6.686;2023-01-23T12:26:02;103217.00;;;5.65;92.69
13068;BME280;6600;51.362;6.686;2023-01-23T12:31:43;103207.06;;;5.78;92.06
13068;BME280;6600;51.362;6.686;2023-01-23T12:34:30;103220.63;;;5.64;90.72
13068;BME280;6600;51.362;6.686;2023-01-23T12:42:28;103219.16;;;5.82;90.10
13068;BME280;6600;51.362;6.686;2023-01-23T12:50:52;103213.34;;;5.66;90.03
13068;BME280;6600;51.362;6.686;2023-01-23T12:53:21;103208.78;;;5.56;90.61
13068;BME280;6600;51.362;6.686;2023-01-23T12:58:19;103209.28;;;5.39;90.77
13068;BME280;6600;51.362;6.686;2023-01-23T13:09:28;103208.06;;;5.43;91.60
13068;BME280;6600;51.362;6.686;2023-01-23T13:16:57;103208.31;;;5.40;90.53
13068;BME280;6600;51.362;6.686;2023-01-23T13:19:26;103211.69;;;5.42;91.36
13068;BME280;6600;51.362;6.686;2023-01-23T13:22:15;103209.78;;;5.44;90.75
13068;BME280;6600;51.362;6.686;2023-01-23T13:27:49;103202.66;;;5.34;90.98
13068;BME280;6600;51.362;6.686;2023-01-23T13:32:56;103208.31;;;5.51;90.77
13068;BME280;6600;51.362;6.686;2023-01-23T13:52:12;103214.34;;;5.53;92.33
13068;BME280;6600;51.362;6.686;2023-01-23T13:55:00;103209.38;;;5.60;91.85
13068;BME280;6600;51.362;6.686;2023-01-23T13:57:44;103210.25;;;5.60;92.35
13068;BME280;6600;51.362;6.686;2023-01-23T14:00:17;103207.13;;;5.44;92.71
13068;BME280;6600;51.362;6.686;2023-01-23T14:02:57;103213.63;;;5.40;93.89
13068;BME280;6600;51.362;6.686;2023-01-23T14:05:43;103215.56;;;5.38;94.04
13068;BME280;6600;51.362;6.686;2023-01-23T14:08:19;103221.38;;;5.43;94.15
13068;BME280;6600;51.362;6.686;2023-01-23T14:10:47;103220.78;;;5.51;94.52
13068;BME280;6600;51.362;6.686;2023-01-23T14:13:15;103216.31;;;5.51;94.91
13068;BME280;6600;51.362;6.686;2023-01-23T14:15:46;103219.16;;;5.48;95.00
13068;BME280;6600;51.362;6.686;2023-01-23T14:18:45;103218.72;;;5.43;95.65
13068;BME280;6600;51.362;6.686;2023-01-23T14:21:22;103221.47;;;5.42;95.93
13068;BME280;6600;51.362;6.686;2023-01-23T14:23:50;103228.13;;;5.36;96.77
13068;BME280;6600;51.362;6.686;2023-01-23T14:26:19;103227.66;;;5.42;96.06
13068;BME280;6600;51.362;6.686;2023-01-23T14:29:00;103228.50;;;5.43;95.91
13068;BME280;6600;51.362;6.686;2023-01-23T14:31:30;103234.66;;;5.43;95.67
13068;BME280;6600;51.362;6.686;2023-01-23T14:34:13;103232.47;;;5.48;95.86
13068;BME280;6600;51.362;6.686;2023-01-23T14:36:43;103223.78;;;5.35;95.88
13068;BME280;6600;51.362;6.686;2023-01-23T14:39:16;103232.47;;;5.26;96.37
13068;BME280;6600;51.362;6.686;2023-01-23T14:41:42;103221.84;;;5.26;96.63
13068;BME280;6600;51.362;6.686;2023-01-23T14:44:17;103224.84;;;5.22;97.42
13068;BME280;6600;51.362;6.686;2023-01-23T14:46:44;103222.78;;;5.14;97.01
13068;BME280;6600;51.362;6.686;2023-01-23T14:49:13;103225.69;;;5.11;98.02
13068;BME280;6600;51.362;6.686;2023-01-23T14:51:53;103229.31;;;5.21;97.45
13068;BME280;6600;51.362;6.686;2023-01-23T14:54:19;103217.00;;;5.20;97.29
13068;BME280;6600;51.362;6.686;2023-01-23T14:56:45;103223.03;;;5.22;97.39